createdAt,value
2017-03-17T00:00:50.811Z,74.35
2017-03-17T00:02:00.039Z,74.07
2017-03-17T00:03:09.427Z,74.44
2017-03-17T00:04:18.311Z,74.26
2017-03-17T00:05:27.856Z,74.73
2017-03-17T00:06:37.398Z,74.82
2017-03-17T00:07:46.608Z,74.73
2017-03-17T00:08:55.970Z,74.44
2017-03-17T00:10:04.857Z,74.16
2017-03-17T00:11:13.749Z,74.35
2017-03-17T00:12:22.638Z,74.35
2017-03-17T00:13:31.531Z,74.26
2017-03-17T00:14:40.568Z,74.73
2017-03-17T00:15:49.462Z,74.92
2017-03-17T00:16:58.674Z,74.82
2017-03-17T00:18:07.882Z,74.92
2017-03-17T00:19:16.768Z,74.73
2017-03-17T00:20:25.920Z,74.92
2017-03-17T00:21:34.814Z,74.63
2017-03-17T00:22:43.703Z,74.73
2017-03-17T00:23:53.240Z,74.82
2017-03-17T00:25:02.783Z,74.73
2017-03-17T00:26:12.569Z,74.92
2017-03-17T00:27:21.468Z,74.63
2017-03-17T00:28:30.684Z,75.11
2017-03-17T00:29:40.228Z,75.11
2017-03-17T00:30:49.473Z,74.92
2017-03-17T00:31:58.514Z,75.21
2017-03-17T00:33:07.732Z,75.4
2017-03-17T00:34:16.621Z,75.3
2017-03-17T00:35:25.505Z,75.78
2017-03-17T00:36:34.719Z,75.78
2017-03-17T00:37:43.610Z,76.31
2017-03-17T00:38:53.151Z,76.31
2017-03-17T00:40:02.706Z,76.06
2017-03-17T00:41:11.595Z,75.93
2017-03-17T00:42:20.487Z,75.87
2017-03-17T00:43:29.852Z,76.54
2017-03-17T00:44:39.063Z,76.5
2017-03-17T00:45:48.603Z,76.16
2017-03-17T00:46:57.492Z,76.06
2017-03-17T00:48:07.680Z,76.06
2017-03-17T00:49:16.866Z,76.06
2017-03-17T00:50:25.755Z,75.68
2017-03-17T00:51:35.620Z,75.4
2017-03-17T00:52:44.839Z,75.3
2017-03-17T00:53:53.723Z,75.49
2017-03-17T00:55:02.660Z,75.3
2017-03-17T00:56:11.550Z,75.11
2017-03-17T00:57:20.773Z,75.11
2017-03-17T00:58:29.661Z,74.82
2017-03-17T00:59:38.881Z,75.11
2017-03-17T01:00:47.919Z,75.11
2017-03-17T01:01:57.138Z,74.92
2017-03-17T01:03:06.029Z,74.92
2017-03-17T01:04:15.898Z,74.92
2017-03-17T01:05:25.766Z,74.92
2017-03-17T01:06:35.237Z,75.3
2017-03-17T01:07:44.811Z,74.82
2017-03-17T01:08:53.702Z,75.3
2017-03-17T01:10:02.918Z,75.02
2017-03-17T01:11:12.135Z,75.11
2017-03-17T01:12:21.379Z,74.82
2017-03-17T01:13:31.568Z,75.02
2017-03-17T01:14:41.112Z,75.11
2017-03-17T01:15:50.330Z,74.67
2017-03-17T01:16:59.222Z,74.87
2017-03-17T01:18:08.913Z,74.77
2017-03-17T01:19:18.129Z,74.77
2017-03-17T01:20:27.997Z,74.67
2017-03-17T01:21:37.214Z,75.24
2017-03-17T01:22:46.437Z,74.87
2017-03-17T01:23:56.125Z,75.24
2017-03-17T01:25:05.667Z,75.34
2017-03-17T01:26:14.567Z,75.53
2017-03-17T01:27:23.783Z,75.34
2017-03-17T01:28:32.999Z,76.01
2017-03-17T01:29:43.019Z,76.1
2017-03-17T01:30:51.925Z,76.1
2017-03-17T01:32:00.813Z,75.91
2017-03-17T01:33:10.681Z,76.1
2017-03-17T01:34:20.220Z,75.91
2017-03-17T01:35:30.711Z,76.01
2017-03-17T01:36:39.932Z,76.39
2017-03-17T01:37:48.825Z,76.57
2017-03-17T01:38:58.384Z,76.67
2017-03-17T01:40:07.280Z,76.48
2017-03-17T01:41:16.970Z,77.24
2017-03-17T01:42:26.185Z,77.05
2017-03-17T01:43:35.076Z,77.15
2017-03-17T01:44:43.966Z,77.24
2017-03-17T01:45:52.862Z,77.37
2017-03-17T01:47:02.178Z,77.53
2017-03-17T01:48:11.067Z,78
2017-03-17T01:49:20.283Z,78.1
2017-03-17T01:50:29.824Z,78.71
2017-03-17T01:51:39.039Z,78.9
2017-03-17T01:52:48.082Z,79.19
2017-03-17T01:53:57.979Z,79.47
2017-03-17T01:55:07.520Z,79.66
2017-03-17T01:56:16.741Z,79.47
2017-03-17T01:57:25.629Z,79.85
2017-03-17T01:58:35.523Z,79.75
2017-03-17T01:59:44.743Z,80.23
2017-03-17T02:00:54.279Z,79.94
2017-03-17T02:02:03.172Z,80.23
2017-03-17T02:03:12.070Z,80.8
2017-03-17T02:04:21.870Z,80.61
2017-03-17T02:05:31.085Z,80.61
2017-03-17T02:06:40.308Z,80.33
2017-03-17T02:07:49.521Z,80.52
2017-03-17T02:08:59.063Z,81.18
2017-03-17T02:10:08.378Z,81.37
2017-03-17T02:11:17.265Z,81.18
2017-03-17T02:12:26.476Z,81.56
2017-03-17T02:13:35.366Z,81.28
2017-03-17T02:14:44.581Z,81.37
2017-03-17T02:15:53.901Z,81.56
2017-03-17T02:17:02.793Z,82.04
2017-03-17T02:18:11.681Z,81.76
2017-03-17T02:19:21.223Z,82.23
2017-03-17T02:20:30.116Z,82.61
2017-03-17T02:21:39.482Z,82.8
2017-03-17T02:22:48.701Z,82.9
2017-03-17T02:23:57.919Z,83.18
2017-03-17T02:25:07.139Z,83.18
2017-03-17T02:26:16.031Z,83.09
2017-03-17T02:27:25.069Z,83.56
2017-03-17T02:28:34.285Z,83.28
2017-03-17T02:29:43.505Z,83.56
2017-03-17T02:30:52.398Z,83.47
2017-03-17T02:32:01.947Z,84.04
2017-03-17T02:33:11.412Z,83.75
2017-03-17T02:34:21.280Z,84.13
2017-03-17T02:35:30.497Z,83.94
2017-03-17T02:36:40.041Z,83.94
2017-03-17T02:37:48.931Z,83.85
2017-03-17T02:38:58.854Z,83.94
2017-03-17T02:40:08.398Z,84.33
2017-03-17T02:41:17.616Z,84.13
2017-03-17T02:42:26.834Z,84.8
2017-03-17T02:43:36.390Z,84.42
2017-03-17T02:44:46.310Z,84.52
2017-03-17T02:45:55.853Z,84.42
2017-03-17T02:47:04.761Z,84.99
2017-03-17T02:48:13.977Z,84.99
2017-03-17T02:49:23.520Z,85.08
2017-03-17T02:50:33.120Z,85.18
2017-03-17T02:51:42.657Z,84.99
2017-03-17T02:52:51.880Z,84.61
2017-03-17T02:54:01.751Z,85.08
2017-03-17T02:55:10.970Z,85.08
2017-03-17T02:56:20.184Z,84.99
2017-03-17T02:57:29.077Z,85.37
2017-03-17T02:58:38.621Z,85.08
2017-03-17T02:59:48.176Z,84.89
2017-03-17T03:00:57.717Z,85.08
2017-03-17T03:02:07.113Z,85.18
2017-03-17T03:03:16.328Z,85.14
2017-03-17T03:04:26.203Z,85.18
2017-03-17T03:05:35.744Z,85.37
2017-03-17T03:06:44.636Z,85.47
2017-03-17T03:07:53.624Z,85.37
2017-03-17T03:09:03.168Z,85.56
2017-03-17T03:10:12.714Z,85.52
2017-03-17T03:11:21.933Z,85.9
2017-03-17T03:12:30.822Z,85.75
2017-03-17T03:13:40.518Z,86.09
2017-03-17T03:14:50.097Z,86.13
2017-03-17T03:15:59.639Z,86.04
2017-03-17T03:17:08.857Z,85.94
2017-03-17T03:18:18.074Z,85.94
2017-03-17T03:19:28.320Z,86.38
2017-03-17T03:20:37.864Z,85.52
2017-03-17T03:21:47.407Z,85.18
2017-03-17T03:22:56.296Z,85.18
2017-03-17T03:24:05.845Z,85.18
2017-03-17T03:25:15.866Z,85.56
2017-03-17T03:26:25.405Z,85.52
2017-03-17T03:27:34.299Z,85.71
2017-03-17T03:28:44.179Z,85.61
2017-03-17T03:29:54.056Z,85.33
2017-03-17T03:31:03.427Z,85.71
2017-03-17T03:32:12.642Z,85.56
2017-03-17T03:33:21.859Z,85.52
2017-03-17T03:34:32.053Z,85.9
2017-03-17T03:35:41.920Z,85.9
2017-03-17T03:36:50.861Z,86.38
2017-03-17T03:38:00.093Z,86.09
2017-03-17T03:39:09.963Z,85.99
2017-03-17T03:40:19.191Z,86.28
2017-03-17T03:41:28.084Z,86.57
2017-03-17T03:42:37.229Z,86.47
2017-03-17T03:43:47.098Z,86.57
2017-03-17T03:44:56.970Z,86.38
2017-03-17T03:46:06.849Z,86.66
2017-03-17T03:47:15.744Z,86.47
2017-03-17T03:48:25.071Z,87.04
2017-03-17T03:49:35.263Z,86.66
2017-03-17T03:50:44.803Z,86.57
2017-03-17T03:51:53.693Z,86.57
2017-03-17T03:53:02.585Z,86.18
2017-03-17T03:54:12.382Z,86.66
2017-03-17T03:55:21.922Z,86.94
2017-03-17T03:56:30.811Z,86.85
2017-03-17T03:57:40.038Z,86.94
2017-03-17T03:58:49.914Z,86.47
2017-03-17T03:59:59.934Z,86.85
2017-03-17T04:01:08.825Z,86.94
2017-03-17T04:02:18.039Z,86.94
2017-03-17T04:03:26.964Z,87.04
2017-03-17T04:04:37.159Z,86.94
2017-03-17T04:05:46.426Z,86.94
2017-03-17T04:06:55.654Z,87.32
2017-03-17T04:08:04.545Z,87.52
2017-03-17T04:09:14.419Z,87.42
2017-03-17T04:10:24.290Z,87.52
2017-03-17T04:11:33.231Z,87.52
2017-03-17T04:12:42.779Z,87.42
2017-03-17T04:13:52.326Z,87.42
2017-03-17T04:15:02.200Z,87.71
2017-03-17T04:16:11.089Z,87.61
2017-03-17T04:17:20.232Z,87.52
2017-03-17T04:18:29.775Z,87.52
2017-03-17T04:19:39.321Z,87.32
2017-03-17T04:20:48.863Z,87.61
2017-03-17T04:21:58.081Z,87.71
2017-03-17T04:23:07.679Z,87.61
2017-03-17T04:24:17.548Z,87.52
2017-03-17T04:25:27.417Z,87.8
2017-03-17T04:26:36.635Z,87.52
2017-03-17T04:27:45.857Z,87.42
2017-03-17T04:28:56.456Z,87.8
2017-03-17T04:30:05.680Z,87.8
2017-03-17T04:31:14.894Z,87.8
2017-03-17T04:32:24.105Z,88.37
2017-03-17T04:33:33.650Z,88.09
2017-03-17T04:34:43.446Z,88.18
2017-03-17T04:35:52.335Z,88.56
2017-03-17T04:37:01.881Z,87.99
2017-03-17T04:38:11.423Z,88.85
2017-03-17T04:39:20.641Z,88.66
2017-03-17T04:40:30.333Z,88.56
2017-03-17T04:41:39.555Z,88.56
2017-03-17T04:42:48.453Z,88.18
2017-03-17T04:43:58.652Z,88.18
2017-03-17T04:45:08.546Z,88.28
2017-03-17T04:46:17.911Z,89.14
2017-03-17T04:47:27.135Z,89.14
2017-03-17T04:48:36.354Z,89.14
2017-03-17T04:49:45.898Z,89.14
2017-03-17T04:50:55.118Z,89.61
2017-03-17T04:52:04.387Z,89.04
2017-03-17T04:53:13.601Z,89.42
2017-03-17T04:54:22.822Z,89.42
2017-03-17T04:55:33.012Z,89.61
2017-03-17T04:56:42.230Z,89.89
2017-03-17T04:57:51.124Z,89.04
2017-03-17T04:59:00.988Z,89.7
2017-03-17T05:00:10.861Z,89.7
2017-03-17T05:01:19.754Z,90.28
2017-03-17T05:02:28.979Z,90.18
2017-03-17T05:03:38.777Z,90.75
2017-03-17T05:04:48.650Z,91.22
2017-03-17T05:05:58.191Z,91.42
2017-03-17T05:07:07.406Z,91.61
2017-03-17T05:08:16.942Z,91.8
2017-03-17T05:09:26.643Z,91.8
2017-03-17T05:10:35.856Z,91.89
2017-03-17T05:11:44.745Z,92.27
2017-03-17T05:12:54.277Z,92.56
2017-03-17T05:14:03.167Z,92.56
2017-03-17T05:15:12.532Z,92.36
2017-03-17T05:16:21.743Z,92.84
2017-03-17T05:17:30.633Z,92.75
2017-03-17T05:18:39.530Z,92.84
2017-03-17T05:19:48.747Z,92.22
2017-03-17T05:20:58.314Z,92.61
2017-03-17T05:22:07.212Z,92.22
2017-03-17T05:23:16.754Z,92.22
2017-03-17T05:24:26.622Z,91.94
2017-03-17T05:25:35.833Z,92.03
2017-03-17T05:26:45.520Z,91.85
2017-03-17T05:27:54.735Z,91.47
2017-03-17T05:29:03.952Z,90.89
2017-03-17T05:30:13.819Z,91.61
2017-03-17T05:31:23.029Z,91.08
2017-03-17T05:32:32.546Z,90.99
2017-03-17T05:33:41.763Z,90.89
2017-03-17T05:34:50.653Z,90.47
2017-03-17T05:36:00.523Z,90.66
2017-03-17T05:37:09.739Z,90.89
2017-03-17T05:38:19.102Z,91.56
2017-03-17T05:39:28.644Z,91.85
2017-03-17T05:40:37.543Z,92.22
2017-03-17T05:41:46.428Z,92.7
2017-03-17T05:42:55.319Z,92.22
2017-03-17T05:44:05.006Z,91.75
2017-03-17T05:45:14.549Z,92.32
2017-03-17T05:46:23.759Z,92.7
2017-03-17T05:47:32.970Z,92.22
2017-03-17T05:48:42.509Z,92.7
2017-03-17T05:49:52.424Z,92.51
2017-03-17T05:51:01.655Z,91.94
2017-03-17T05:52:10.544Z,92.8
2017-03-17T05:53:20.741Z,92.51
2017-03-17T05:54:30.296Z,92.51
2017-03-17T05:55:39.284Z,92.61
2017-03-17T05:56:48.499Z,92.8
2017-03-17T05:57:57.399Z,92.03
2017-03-17T05:59:07.266Z,91.66
2017-03-17T06:00:17.463Z,91.47
2017-03-17T06:01:26.690Z,91.94
2017-03-17T06:02:35.578Z,90.99
2017-03-17T06:03:45.132Z,90.99
2017-03-17T06:04:54.372Z,90.89
2017-03-17T06:06:04.568Z,91.28
2017-03-17T06:07:13.779Z,91.08
2017-03-17T06:08:22.664Z,90.61
2017-03-17T06:09:32.529Z,90.89
2017-03-17T06:10:41.433Z,90.99
2017-03-17T06:11:50.646Z,90.89
2017-03-17T06:13:00.191Z,90.99
2017-03-17T06:14:09.737Z,90.7
2017-03-17T06:15:18.950Z,90.23
2017-03-17T06:16:28.161Z,90.42
2017-03-17T06:17:37.060Z,88.9
2017-03-17T06:18:46.927Z,89.75
2017-03-17T06:19:56.468Z,89.28
2017-03-17T06:21:05.691Z,88.71
2017-03-17T06:22:14.583Z,87.09
2017-03-17T06:23:23.801Z,87.19
2017-03-17T06:24:33.681Z,85.76
2017-03-17T06:25:43.543Z,85.57
2017-03-17T06:26:53.060Z,85.66
2017-03-17T06:28:02.601Z,84.33
2017-03-17T06:29:12.165Z,84.52
2017-03-17T06:30:21.380Z,84.81
2017-03-17T06:31:30.271Z,85.1
2017-03-17T06:32:39.811Z,84.33
2017-03-17T06:33:49.686Z,83.86
2017-03-17T06:34:59.232Z,84.14
2017-03-17T06:36:08.772Z,83.95
2017-03-17T06:37:17.988Z,83
2017-03-17T06:38:27.309Z,81.86
2017-03-17T06:39:37.829Z,81.25
2017-03-17T06:40:47.044Z,81.29
2017-03-17T06:41:56.582Z,81.54
2017-03-17T06:43:05.806Z,78.72
2017-03-17T06:44:15.886Z,79.49
2017-03-17T06:45:25.773Z,79.68
2017-03-17T06:46:35.318Z,79.77
2017-03-17T06:47:44.861Z,80.58
2017-03-17T06:48:54.406Z,81.06
2017-03-17T06:50:04.108Z,80.4
2017-03-17T06:51:13.001Z,80.3
2017-03-17T06:52:22.539Z,79.83
2017-03-17T06:53:31.757Z,80.02
2017-03-17T06:54:41.303Z,79.54
2017-03-17T06:55:50.670Z,79.01
2017-03-17T06:56:59.910Z,78.4
2017-03-17T06:58:09.783Z,79.44
2017-03-17T06:59:19.652Z,79.73
2017-03-17T07:00:29.521Z,79.35
2017-03-17T07:01:39.486Z,79.16
2017-03-17T07:02:48.697Z,79.44
2017-03-17T07:03:57.591Z,79.54
2017-03-17T07:05:07.133Z,79.54
2017-03-17T07:06:16.996Z,79.73
2017-03-17T07:07:26.138Z,79.83
2017-03-17T07:08:35.359Z,79.83
2017-03-17T07:09:44.903Z,80.49
2017-03-17T07:10:54.446Z,79.68
2017-03-17T07:12:03.336Z,80.02
2017-03-17T07:13:13.130Z,80.11
2017-03-17T07:14:23.321Z,79.54
2017-03-17T07:15:32.861Z,79.44
2017-03-17T07:16:41.754Z,79.83
2017-03-17T07:17:51.302Z,80.02
2017-03-17T07:19:01.296Z,79.44
2017-03-17T07:20:11.167Z,79.54
2017-03-17T07:21:20.054Z,79.16
2017-03-17T07:22:29.268Z,79.35
2017-03-17T07:23:38.809Z,79.35
2017-03-17T07:24:48.783Z,79.83
2017-03-17T07:25:58.978Z,79.35
2017-03-17T07:27:07.870Z,79.35
2017-03-17T07:28:17.089Z,79.35
2017-03-17T07:29:26.641Z,79.35
2017-03-17T07:30:36.656Z,79.35
2017-03-17T07:31:46.398Z,79.35
2017-03-17T07:32:55.288Z,78.88
2017-03-17T07:34:04.508Z,78.5
2017-03-17T07:35:14.376Z,78.5
2017-03-17T07:36:23.522Z,78.5
2017-03-17T07:37:33.058Z,77.49
2017-03-17T07:38:42.931Z,77.49
2017-03-17T07:39:52.480Z,77.58
2017-03-17T07:41:02.355Z,77.49
2017-03-17T07:42:11.548Z,77.01
2017-03-17T07:43:20.760Z,76.35
2017-03-17T07:44:30.630Z,76.54
2017-03-17T07:45:40.175Z,76.06
2017-03-17T07:46:49.078Z,75.96
2017-03-17T07:47:58.731Z,76.54
2017-03-17T07:49:08.600Z,76.16
2017-03-17T07:50:18.469Z,76.63
2017-03-17T07:51:27.355Z,76.16
2017-03-17T07:52:36.576Z,76.54
2017-03-17T07:53:46.926Z,76.16
2017-03-17T07:54:56.471Z,76.16
2017-03-17T07:56:06.011Z,75.87
2017-03-17T07:57:14.902Z,76.16
2017-03-17T07:58:24.119Z,75.59
2017-03-17T07:59:34.387Z,75.68
2017-03-17T08:00:43.926Z,75.02
2017-03-17T08:01:53.170Z,74.73
2017-03-17T08:03:02.060Z,74.63
2017-03-17T08:04:11.954Z,74.54
2017-03-17T08:05:21.427Z,74.26
2017-03-17T08:06:30.971Z,74.16
2017-03-17T08:07:39.891Z,74.07
2017-03-17T08:08:50.422Z,74.07
2017-03-17T08:10:00.296Z,73.78
2017-03-17T08:11:09.438Z,73.88
2017-03-17T08:12:18.328Z,74.07
2017-03-17T08:13:27.226Z,73.69
2017-03-17T08:14:37.094Z,73.88
2017-03-17T08:15:46.314Z,74.07
2017-03-17T08:16:55.578Z,73.88
2017-03-17T08:18:04.473Z,73.06
2017-03-17T08:19:14.016Z,73.53
2017-03-17T08:20:23.883Z,73.34
2017-03-17T08:21:32.776Z,71.44
2017-03-17T08:22:41.826Z,70.3
2017-03-17T08:23:51.706Z,69.35
2017-03-17T08:25:02.227Z,68.68
2017-03-17T08:26:11.441Z,68.68
2017-03-17T08:27:20.978Z,69.15
2017-03-17T08:28:30.172Z,68.77
2017-03-17T08:29:39.715Z,69.15
2017-03-17T08:30:49.261Z,68.49
2017-03-17T08:31:58.484Z,68.49
2017-03-17T08:33:07.380Z,69.15
2017-03-17T08:34:17.597Z,69.06
2017-03-17T08:35:26.822Z,68.96
2017-03-17T08:36:35.718Z,68.77
2017-03-17T08:37:45.259Z,69.25
2017-03-17T08:38:54.473Z,68.3
2017-03-17T08:40:04.597Z,66.97
2017-03-17T08:41:14.470Z,67.25
2017-03-17T08:42:23.680Z,67.22
2017-03-17T08:43:32.900Z,66.39
2017-03-17T08:44:42.774Z,66.39
2017-03-17T08:45:51.715Z,66.49
2017-03-17T08:47:00.601Z,66.11
2017-03-17T08:48:10.151Z,65.99
2017-03-17T08:49:19.364Z,66.3
2017-03-17T08:50:28.902Z,66.49
2017-03-17T08:51:38.509Z,66.3
2017-03-17T08:52:47.408Z,66.59
2017-03-17T08:53:57.274Z,66.36
2017-03-17T08:55:06.489Z,65.51
2017-03-17T08:56:15.705Z,65.25
2017-03-17T08:57:24.705Z,64.5
2017-03-17T08:58:33.593Z,64.87
2017-03-17T08:59:43.134Z,63.17
2017-03-17T09:00:52.354Z,61.83
2017-03-17T09:02:01.243Z,61.64
2017-03-17T09:03:10.294Z,62.3
2017-03-17T09:04:20.484Z,65.35
2017-03-17T09:05:29.726Z,65.73
2017-03-17T09:06:39.268Z,63.01
2017-03-17T09:07:48.160Z,63.67
2017-03-17T09:08:58.282Z,63.01
2017-03-17T09:10:08.471Z,61.67
2017-03-17T09:11:17.362Z,62.24
2017-03-17T09:12:26.580Z,62.72
2017-03-17T09:13:36.123Z,64.69
2017-03-17T09:14:45.716Z,65.25
2017-03-17T09:15:54.603Z,65.06
2017-03-17T09:17:03.820Z,64.78
2017-03-17T09:18:13.036Z,64.78
2017-03-17T09:19:22.266Z,64.5
2017-03-17T09:20:32.290Z,64.94
2017-03-17T09:21:42.154Z,64.08
2017-03-17T09:22:51.374Z,64.18
2017-03-17T09:24:01.246Z,64.37
2017-03-17T09:25:10.790Z,64.56
2017-03-17T09:26:19.980Z,64.08
2017-03-17T09:27:28.868Z,63.99
2017-03-17T09:28:38.091Z,63.89
2017-03-17T09:29:47.306Z,63.6
2017-03-17T09:30:57.181Z,63.23
2017-03-17T09:32:06.543Z,63.13
2017-03-17T09:33:15.757Z,63.42
2017-03-17T09:34:24.969Z,64.08
2017-03-17T09:35:34.187Z,64.37
2017-03-17T09:36:43.733Z,64.75
2017-03-17T09:37:53.031Z,64.65
2017-03-17T09:39:02.575Z,64.65
2017-03-17T09:40:11.465Z,64.21
2017-03-17T09:41:20.686Z,64.02
2017-03-17T09:42:29.896Z,64.31
2017-03-17T09:43:39.192Z,64.87
2017-03-17T09:44:48.084Z,64.4
2017-03-17T09:45:57.625Z,64.4
2017-03-17T09:47:06.517Z,64.5
2017-03-17T09:48:15.730Z,64.11
2017-03-17T09:49:25.430Z,64.11
2017-03-17T09:50:34.648Z,63.64
2017-03-17T09:51:43.865Z,63.92
2017-03-17T09:52:53.083Z,63.73
2017-03-17T09:54:01.975Z,63.64
2017-03-17T09:55:11.889Z,63.73
2017-03-17T09:56:21.098Z,63.54
2017-03-17T09:57:30.007Z,63.83
2017-03-17T09:58:39.869Z,63.73
2017-03-17T09:59:49.733Z,62.21
2017-03-17T10:01:00.074Z,60.21
2017-03-17T10:02:09.615Z,59.74
2017-03-17T10:03:18.512Z,60.12
2017-03-17T10:04:28.054Z,60.69
2017-03-17T10:05:37.917Z,60.97
2017-03-17T10:06:47.654Z,60.12
2017-03-17T10:07:56.867Z,59.07
2017-03-17T10:09:06.407Z,58.59
2017-03-17T10:10:15.950Z,58.22
2017-03-17T10:11:25.160Z,58.03
2017-03-17T10:12:35.104Z,57.84
2017-03-17T10:13:44.973Z,58.12
2017-03-17T10:14:54.523Z,58.03
2017-03-17T10:16:04.060Z,58.31
2017-03-17T10:17:12.978Z,58.79
2017-03-17T10:18:22.342Z,59.07
2017-03-17T10:19:31.893Z,59.2
2017-03-17T10:20:41.108Z,58.25
2017-03-17T10:21:50.005Z,58.06
2017-03-17T10:22:58.898Z,58.06
2017-03-17T10:24:08.822Z,58.15
2017-03-17T10:25:18.361Z,58.06
2017-03-17T10:26:29.231Z,57.87
2017-03-17T10:27:38.122Z,55.96
2017-03-17T10:28:47.666Z,56.05
2017-03-17T10:29:57.744Z,55.77
2017-03-17T10:31:06.960Z,56.34
2017-03-17T10:32:16.209Z,56.44
2017-03-17T10:33:25.100Z,56.82
2017-03-17T10:34:33.992Z,57.26
2017-03-17T10:35:43.455Z,57.45
2017-03-17T10:36:52.352Z,58.12
2017-03-17T10:38:01.918Z,57.65
2017-03-17T10:39:11.140Z,57.1
2017-03-17T10:40:21.673Z,57.1
2017-03-17T10:41:31.358Z,57.65
2017-03-17T10:42:40.573Z,56.82
2017-03-17T10:43:50.115Z,56.79
2017-03-17T10:44:59.337Z,57.26
2017-03-17T10:46:08.228Z,56.82
2017-03-17T10:47:17.264Z,56.51
2017-03-17T10:48:26.812Z,56.6
2017-03-17T10:49:36.352Z,56.34
2017-03-17T10:50:45.568Z,55.96
2017-03-17T10:51:54.460Z,56.05
2017-03-17T10:53:03.450Z,55.87
2017-03-17T10:54:12.664Z,55.87
2017-03-17T10:55:22.238Z,56.15
2017-03-17T10:56:31.128Z,55.2
2017-03-17T10:57:40.347Z,54.82
2017-03-17T10:58:50.648Z,54.91
2017-03-17T11:00:00.194Z,54.63
2017-03-17T11:01:09.408Z,54.82
2017-03-17T11:02:18.949Z,55.39
2017-03-17T11:03:29.144Z,55.2
2017-03-17T11:04:38.510Z,54.63
2017-03-17T11:05:48.069Z,54.72
2017-03-17T11:06:56.959Z,55.29
2017-03-17T11:08:05.851Z,55.01
2017-03-17T11:09:15.394Z,55.77
2017-03-17T11:10:25.413Z,55.58
2017-03-17T11:11:34.627Z,55.01
2017-03-17T11:12:44.167Z,53.77
2017-03-17T11:13:54.068Z,53.87
2017-03-17T11:15:03.938Z,53.3
2017-03-17T11:16:13.463Z,53.77
2017-03-17T11:17:54.401Z,54.35
2017-03-17T11:19:03.631Z,53.87
2017-03-17T11:20:13.174Z,53.96
2017-03-17T11:21:22.137Z,53.87
2017-03-17T11:22:31.028Z,53.96
2017-03-17T11:23:40.250Z,53.87
2017-03-17T11:24:50.445Z,54.35
2017-03-17T11:25:59.678Z,54.44
2017-03-17T11:27:09.266Z,53.67
2017-03-17T11:28:19.145Z,53.77
2017-03-17T11:29:29.339Z,53.87
2017-03-17T11:30:38.559Z,53.87
2017-03-17T11:31:47.452Z,53.39
2017-03-17T11:32:57.304Z,52.84
2017-03-17T11:34:06.848Z,51.68
2017-03-17T11:35:16.720Z,51.3
2017-03-17T11:36:25.934Z,51.3
2017-03-17T11:37:35.146Z,51.3
2017-03-17T11:38:45.164Z,51.49
2017-03-17T11:39:54.710Z,51.49
2017-03-17T11:41:04.254Z,51.39
2017-03-17T11:42:13.477Z,50.92
2017-03-17T11:43:22.365Z,50.73
2017-03-17T11:44:31.638Z,50.82
2017-03-17T11:45:40.857Z,51.39
2017-03-17T11:46:49.748Z,51.39
2017-03-17T11:47:59.003Z,51.87
2017-03-17T11:49:08.879Z,51.87
2017-03-17T11:50:18.198Z,51.78
2017-03-17T11:51:27.416Z,52.06
2017-03-17T11:52:36.310Z,51.97
2017-03-17T11:53:45.536Z,51.97
2017-03-17T11:54:55.087Z,51.3
2017-03-17T11:56:04.685Z,51.49
2017-03-17T11:57:13.903Z,51.49
2017-03-17T11:58:23.122Z,51.58
2017-03-17T11:59:32.657Z,51.39
2017-03-17T12:00:41.554Z,51.68
2017-03-17T12:01:50.603Z,51.89
2017-03-17T12:02:59.529Z,51.3
2017-03-17T12:04:08.753Z,51.58
2017-03-17T12:05:18.627Z,51.39
2017-03-17T12:06:27.847Z,52.06
2017-03-17T12:07:37.061Z,52.72
2017-03-17T12:08:45.957Z,52.72
2017-03-17T12:09:56.152Z,52.82
2017-03-17T12:11:05.694Z,52.53
2017-03-17T12:12:14.947Z,51.97
2017-03-17T12:13:24.417Z,52.44
2017-03-17T12:14:33.312Z,52.82
2017-03-17T12:15:42.202Z,52.15
2017-03-17T12:16:51.093Z,51.78
2017-03-17T12:18:00.023Z,52.15
2017-03-17T12:19:09.017Z,51.87
2017-03-17T12:20:18.882Z,51.39
2017-03-17T12:21:27.774Z,51.39
2017-03-17T12:22:36.669Z,51.49
2017-03-17T12:23:45.888Z,51.97
2017-03-17T12:24:55.484Z,51.49
2017-03-17T12:26:04.703Z,51.2
2017-03-17T12:27:13.918Z,51.39
2017-03-17T12:28:23.459Z,51.49
2017-03-17T12:29:33.329Z,51.14
2017-03-17T12:30:42.470Z,50.85
2017-03-17T12:31:51.690Z,51.3
2017-03-17T12:33:00.901Z,51.23
2017-03-17T12:34:10.776Z,50.46
2017-03-17T12:35:20.647Z,50.73
2017-03-17T12:36:30.442Z,50.44
2017-03-17T12:37:39.333Z,50.85
2017-03-17T12:38:49.209Z,50.37
2017-03-17T12:39:59.087Z,50.27
2017-03-17T12:41:08.637Z,50.09
2017-03-17T12:42:17.924Z,50.09
2017-03-17T12:43:26.820Z,49.99
2017-03-17T12:44:36.394Z,49.32
2017-03-17T12:45:45.286Z,49.9
2017-03-17T12:46:54.506Z,49.8
2017-03-17T12:48:04.200Z,49.99
2017-03-17T12:49:13.755Z,49.87
2017-03-17T12:50:23.299Z,50.85
2017-03-17T12:51:32.190Z,51.04
2017-03-17T12:52:41.404Z,50.56
2017-03-17T12:53:50.671Z,51.32
2017-03-17T12:55:00.543Z,51.7
2017-03-17T12:56:09.441Z,51.23
2017-03-17T12:57:18.658Z,51.04
2017-03-17T12:58:27.873Z,51.1
2017-03-17T12:59:37.670Z,51.14
2017-03-17T13:00:46.557Z,51.49
2017-03-17T13:01:55.457Z,51.42
2017-03-17T13:03:04.349Z,51.32
2017-03-17T13:04:13.573Z,51.58
2017-03-17T13:05:22.840Z,51.32
2017-03-17T13:06:32.390Z,51.32
2017-03-17T13:07:41.601Z,51.32
2017-03-17T13:08:51.471Z,51.23
2017-03-17T13:10:01.020Z,51.51
2017-03-17T13:11:10.286Z,51.04
2017-03-17T13:12:19.854Z,51.3
2017-03-17T13:13:29.391Z,51.39
2017-03-17T13:14:39.262Z,51.1
2017-03-17T13:15:48.480Z,51.42
2017-03-17T13:16:57.519Z,51.78
2017-03-17T13:18:06.733Z,51.68
2017-03-17T13:19:16.277Z,51.49
2017-03-17T13:20:26.143Z,51.1
2017-03-17T13:21:35.031Z,51.49
2017-03-17T13:22:44.023Z,51.78
2017-03-17T13:23:53.244Z,51.68
2017-03-17T13:25:03.438Z,53.3
2017-03-17T13:26:12.662Z,54.35
2017-03-17T13:27:21.881Z,55.49
2017-03-17T13:28:31.903Z,55.58
2017-03-17T13:29:40.800Z,54.91
2017-03-17T13:30:49.687Z,55.01
2017-03-17T13:31:58.913Z,53.77
2017-03-17T13:33:08.131Z,53.39
2017-03-17T13:34:17.700Z,53.67
2017-03-17T13:35:27.639Z,53.87
2017-03-17T13:36:36.539Z,53.96
2017-03-17T13:37:45.764Z,53.67
2017-03-17T13:38:55.634Z,55.29
2017-03-17T13:40:05.183Z,56.63
2017-03-17T13:41:14.727Z,57.77
2017-03-17T13:42:24.268Z,59.36
2017-03-17T13:43:33.157Z,58.91
2017-03-17T13:44:42.699Z,58.79
2017-03-17T13:45:51.742Z,58.88
2017-03-17T13:47:01.289Z,58.81
2017-03-17T13:48:10.244Z,59.29
2017-03-17T13:49:20.452Z,58.25
2017-03-17T13:50:30.007Z,58.4
2017-03-17T13:51:39.271Z,58.34
2017-03-17T13:52:48.618Z,58.15
2017-03-17T13:53:58.186Z,57.29
2017-03-17T13:55:07.404Z,57.58
2017-03-17T13:56:16.294Z,57.26
2017-03-17T13:57:25.705Z,57.36
2017-03-17T13:58:34.597Z,57.74
2017-03-17T13:59:43.819Z,57.93
2017-03-17T14:00:53.376Z,57.93
2017-03-17T14:02:02.618Z,58.44
2017-03-17T14:03:12.324Z,57.93
2017-03-17T14:04:21.228Z,58.15
2017-03-17T14:05:31.423Z,57.67
2017-03-17T14:06:40.638Z,57.74
2017-03-17T14:07:49.852Z,57.93
2017-03-17T14:08:59.821Z,57.74
2017-03-17T14:10:09.712Z,57.93
2017-03-17T14:11:18.924Z,58.22
2017-03-17T14:12:27.813Z,58.31
2017-03-17T14:13:37.029Z,57.93
2017-03-17T14:14:46.572Z,57.2
2017-03-17T14:15:55.463Z,57.36
2017-03-17T14:17:05.003Z,57.45
2017-03-17T14:18:13.896Z,57.36
2017-03-17T14:19:24.424Z,56.12
2017-03-17T14:20:34.063Z,56.88
2017-03-17T14:21:43.287Z,56.41
2017-03-17T14:22:52.183Z,56.88
2017-03-17T14:24:01.394Z,57.36
2017-03-17T14:25:10.284Z,56.88
2017-03-17T14:26:19.750Z,56.6
2017-03-17T14:27:28.637Z,56.6
2017-03-17T14:28:37.527Z,56.6
2017-03-17T14:29:47.075Z,56.6
2017-03-17T14:30:56.621Z,56.15
2017-03-17T14:32:05.994Z,56.31
2017-03-17T14:33:15.210Z,56.88
2017-03-17T14:34:24.757Z,56.51
2017-03-17T14:35:33.648Z,56.05
2017-03-17T14:36:42.538Z,56.53
2017-03-17T14:37:51.574Z,56.51
2017-03-17T14:39:00.790Z,56.24
2017-03-17T14:40:09.684Z,56.44
2017-03-17T14:41:18.901Z,56.53
2017-03-17T14:42:28.444Z,56.15
2017-03-17T14:43:38.086Z,55.68
2017-03-17T14:44:47.951Z,56.44
2017-03-17T14:45:57.497Z,55.96
2017-03-17T14:47:06.713Z,55.87
2017-03-17T14:48:15.966Z,56.05
2017-03-17T14:49:26.157Z,55.87
2017-03-17T14:50:36.357Z,56.05
2017-03-17T14:51:45.242Z,55.96
2017-03-17T14:52:54.145Z,56.15
2017-03-17T14:54:03.695Z,55.1
2017-03-17T14:55:13.391Z,55.01
2017-03-17T14:56:22.290Z,55.29
2017-03-17T14:57:31.509Z,55.29